createdAt,value
2023-06-18T00:00:17.445Z,76.32
2023-06-18T00:02:44.203Z,76.16
2023-06-18T00:05:10.968Z,77.32
2023-06-18T00:07:37.699Z,79.04
2023-06-18T00:10:05.389Z,77.99
2023-06-18T00:12:32.033Z,76.86
2023-06-18T00:14:58.910Z,78.99
2023-06-18T00:17:26.566Z,78.83
2023-06-18T00:19:53.324Z,79.01
2023-06-18T00:22:20.003Z,79.48
2023-06-18T00:24:46.692Z,76.75
2023-06-18T00:27:13.431Z,75.30
2023-06-18T00:29:41.729Z,74.24
2023-06-18T00:32:09.034Z,76.30
2023-06-18T00:34:36.982Z,76.42
2023-06-18T00:37:04.293Z,76.69
2023-06-18T00:39:31.177Z,76.35
2023-06-18T00:41:58.158Z,76.87
2023-06-18T00:44:25.560Z,75.75
2023-06-18T00:46:52.843Z,75.90
2023-06-18T00:49:20.052Z,77.70
2023-06-18T00:51:47.634Z,78.46
2023-06-18T00:54:16.717Z,78.19
2023-06-18T00:56:53.269Z,77.56
2023-06-18T00:59:24.211Z,75.51
2023-06-18T01:01:55.261Z,76.03
2023-06-18T01:04:28.492Z,75.42
2023-06-18T01:06:57.186Z,77.01
2023-06-18T01:09:27.711Z,76.27
2023-06-18T01:11:55.265Z,75.24
2023-06-18T01:14:27.684Z,74.80
2023-06-18T01:16:57.096Z,75.03
2023-06-18T01:19:42.365Z,76.55
2023-06-18T01:22:27.479Z,77.72
2023-06-18T01:25:00.093Z,76.59
2023-06-18T01:27:29.153Z,77.05
2023-06-18T01:29:58.031Z,76.80
2023-06-18T01:32:25.043Z,78.39
2023-06-18T01:34:55.009Z,76.90
2023-06-18T01:38:00.832Z,77.73
2023-06-18T01:40:33.420Z,77.58
2023-06-18T01:43:04.876Z,78.17
2023-06-18T01:45:46.687Z,77.32
2023-06-18T01:48:16.319Z,76.62
2023-06-18T01:50:46.131Z,78.37
2023-06-18T01:53:17.287Z,78.33
2023-06-18T01:55:48.258Z,80.55
2023-06-18T01:58:15.149Z,78.87
2023-06-18T02:00:42.426Z,77.58
2023-06-18T02:03:09.411Z,76.60
2023-06-18T02:05:36.818Z,77.18
2023-06-18T02:08:03.505Z,78.46
2023-06-18T02:10:30.172Z,78.39
2023-06-18T02:12:56.831Z,77.68
2023-06-18T02:15:23.618Z,76.77
2023-06-18T02:17:50.371Z,77.58
2023-06-18T02:20:17.660Z,79.51
2023-06-18T02:22:44.497Z,79.25
2023-06-18T02:25:11.151Z,79.04
2023-06-18T02:27:37.738Z,79.10
2023-06-18T02:30:05.214Z,78.23
2023-06-18T02:32:35.898Z,77.63
2023-06-18T02:35:02.711Z,78.76
2023-06-18T02:37:29.333Z,77.76
2023-06-18T02:39:56.109Z,79.16
2023-06-18T02:42:23.289Z,78.13
2023-06-18T02:44:50.052Z,78.91
2023-06-18T02:47:16.895Z,76.91
2023-06-18T02:49:43.588Z,77.19
2023-06-18T02:52:10.396Z,77.51
2023-06-18T02:54:37.522Z,76.80
2023-06-18T02:57:05.356Z,76.98
2023-06-18T02:59:32.599Z,77.79
2023-06-18T03:01:59.911Z,76.49
2023-06-18T03:04:27.089Z,76.60
2023-06-18T03:06:59.034Z,76.41
2023-06-18T03:09:25.810Z,77.69
2023-06-18T03:11:52.470Z,78.59
2023-06-18T03:14:21.524Z,78.10
2023-06-18T03:16:48.213Z,79.38
2023-06-18T03:19:15.050Z,78.70
2023-06-18T03:21:41.977Z,77.29
2023-06-18T03:24:08.724Z,78.74
2023-06-18T03:26:37.563Z,79.61
2023-06-18T03:29:05.020Z,78.38
2023-06-18T03:31:32.430Z,78.19
2023-06-18T03:34:02.594Z,77.17
2023-06-18T03:36:31.062Z,77.67
2023-06-18T03:38:58.513Z,78.23
2023-06-18T03:41:32.664Z,78.77
2023-06-18T03:43:59.292Z,77.92
2023-06-18T03:46:25.997Z,78.69
2023-06-18T03:48:52.869Z,78.28
2023-06-18T03:51:19.577Z,76.63
2023-06-18T03:53:46.285Z,78.02
2023-06-18T03:56:13.039Z,77.87
2023-06-18T03:58:39.870Z,77.92
2023-06-18T04:01:08.507Z,78.22
2023-06-18T04:03:39.053Z,77.73
2023-06-18T04:06:05.919Z,76.97
2023-06-18T04:08:42.929Z,79.15
2023-06-18T04:11:09.617Z,77.92
2023-06-18T04:13:36.722Z,79.71
2023-06-18T04:16:03.710Z,78.03
2023-06-18T04:18:30.942Z,79.30
2023-06-18T04:20:57.597Z,80.75
2023-06-18T04:23:24.385Z,81.19
2023-06-18T04:26:03.845Z,82.22
2023-06-18T04:28:30.779Z,79.70
2023-06-18T04:31:04.632Z,80.46
2023-06-18T04:33:48.092Z,78.73
2023-06-18T04:36:16.180Z,77.55
2023-06-18T04:38:43.047Z,77.70
2023-06-18T04:41:09.834Z,76.35
2023-06-18T04:43:36.462Z,77.97
2023-06-18T04:46:03.349Z,76.73
2023-06-18T04:48:30.106Z,77.71
2023-06-18T04:50:56.717Z,76.88
2023-06-18T04:53:23.422Z,76.22
2023-06-18T04:55:50.107Z,76.00
2023-06-18T04:58:16.908Z,77.44
2023-06-18T05:00:43.817Z,79.96
2023-06-18T05:03:10.634Z,79.04
2023-06-18T05:05:37.670Z,77.17
2023-06-18T05:08:04.638Z,76.09
2023-06-18T05:10:31.384Z,76.42
2023-06-18T05:12:58.103Z,77.17
2023-06-18T05:15:24.758Z,76.39
2023-06-18T05:17:51.488Z,76.42
2023-06-18T05:20:18.224Z,77.72
2023-06-18T05:22:44.864Z,77.38
2023-06-18T05:25:11.522Z,78.14
2023-06-18T05:27:38.199Z,80.71
2023-06-18T05:30:05.550Z,80.20
2023-06-18T05:32:32.212Z,79.84
2023-06-18T05:34:59.001Z,78.17
2023-06-18T05:37:25.766Z,79.97
2023-06-18T05:39:53.301Z,78.13
2023-06-18T05:42:20.084Z,77.24
2023-06-18T05:44:47.083Z,77.42
2023-06-18T05:47:13.953Z,78.27
2023-06-18T05:49:40.660Z,79.10
2023-06-18T05:52:07.840Z,79.32
2023-06-18T05:54:34.756Z,78.37
2023-06-18T05:57:02.598Z,79.41
2023-06-18T05:59:29.230Z,79.92
2023-06-18T06:01:56.457Z,81.09
2023-06-18T06:04:23.976Z,79.15
2023-06-18T06:06:51.359Z,77.18
2023-06-18T06:09:17.997Z,77.57
2023-06-18T06:11:44.785Z,78.14
2023-06-18T06:14:12.375Z,77.22
2023-06-18T06:16:39.406Z,76.84
2023-06-18T06:19:06.385Z,76.83
2023-06-18T06:21:34.742Z,76.41
2023-06-18T06:24:01.644Z,75.31
2023-06-18T06:26:28.909Z,76.18
2023-06-18T06:28:55.604Z,76.69
2023-06-18T06:31:22.292Z,76.67
2023-06-18T06:33:49.002Z,77.04
2023-06-18T06:36:15.694Z,75.51
2023-06-18T06:38:42.407Z,76.34
2023-06-18T06:41:11.242Z,75.78
2023-06-18T06:43:38.763Z,75.15
2023-06-18T06:46:05.640Z,73.90
2023-06-18T06:48:33.177Z,74.91
2023-06-18T06:50:59.866Z,75.46
2023-06-18T06:53:26.572Z,74.94
2023-06-18T06:55:53.318Z,75.49
2023-06-18T06:58:20.036Z,74.68
2023-06-18T07:00:46.868Z,76.71
2023-06-18T07:03:13.681Z,75.86
2023-06-18T07:05:40.370Z,74.82
2023-06-18T07:08:07.128Z,73.79
2023-06-18T07:10:35.410Z,73.78
2023-06-18T07:13:03.275Z,75.17
2023-06-18T07:15:30.067Z,75.99
2023-06-18T07:17:56.821Z,76.07
2023-06-18T07:20:23.654Z,75.49
2023-06-18T07:22:50.644Z,79.07
2023-06-18T07:25:17.376Z,78.15
2023-06-18T07:27:44.044Z,76.92
2023-06-18T07:30:11.131Z,74.68
2023-06-18T07:32:37.830Z,76.02
2023-06-18T07:35:04.979Z,78.49
2023-06-18T07:37:31.726Z,78.26
2023-06-18T07:39:58.468Z,77.82
2023-06-18T07:42:25.168Z,78.84
2023-06-18T07:44:53.641Z,78.32
2023-06-18T07:47:20.474Z,78.39
2023-06-18T07:49:47.167Z,77.63
2023-06-18T07:52:13.906Z,77.01
2023-06-18T07:54:40.641Z,76.29
2023-06-18T07:57:07.394Z,76.24
2023-06-18T07:59:34.478Z,76.96
2023-06-18T08:02:01.169Z,77.69
2023-06-18T08:04:27.928Z,76.83
2023-06-18T08:06:54.618Z,77.20
2023-06-18T08:09:21.620Z,77.93
2023-06-18T08:11:49.486Z,77.50
2023-06-18T08:14:16.116Z,78.27
2023-06-18T08:16:42.955Z,78.99
2023-06-18T08:19:09.650Z,78.67
2023-06-18T08:21:36.662Z,79.18
2023-06-18T08:24:04.493Z,77.54
2023-06-18T08:26:31.422Z,79.89
2023-06-18T08:28:58.015Z,78.71
2023-06-18T08:31:24.749Z,76.98
2023-06-18T08:33:51.602Z,76.28
2023-06-18T08:36:21.445Z,76.14
2023-06-18T08:38:48.768Z,75.40
2023-06-18T08:41:15.788Z,74.72
2023-06-18T08:43:42.624Z,75.21
2023-06-18T08:46:14.980Z,75.53
2023-06-18T08:48:49.392Z,76.79
2023-06-18T08:51:17.589Z,74.56
2023-06-18T08:53:50.924Z,75.10
2023-06-18T08:56:22.099Z,75.25
2023-06-18T08:59:00.940Z,75.38
2023-06-18T09:01:27.916Z,73.61
2023-06-18T09:03:55.696Z,73.19
2023-06-18T09:06:24.058Z,73.26
2023-06-18T09:08:50.762Z,73.97
2023-06-18T09:11:17.639Z,73.22
2023-06-18T09:13:45.438Z,72.13
2023-06-18T09:16:12.974Z,72.60
2023-06-18T09:18:39.708Z,73.25
2023-06-18T09:21:06.943Z,70.80
2023-06-18T09:23:34.549Z,72.28
2023-06-18T09:26:02.551Z,72.83
2023-06-18T09:28:29.685Z,72.55
2023-06-18T09:31:02.250Z,72.70
2023-06-18T09:33:33.090Z,70.37
2023-06-18T09:36:09.969Z,69.87
2023-06-18T09:38:43.499Z,68.44
2023-06-18T09:41:15.329Z,70.28
2023-06-18T09:43:44.437Z,69.61
2023-06-18T09:46:12.979Z,71.50
2023-06-18T09:48:42.547Z,71.26
2023-06-18T09:51:10.069Z,70.86
2023-06-18T09:53:37.274Z,68.80
2023-06-18T09:56:13.763Z,71.13
2023-06-18T09:58:51.789Z,69.76
2023-06-18T10:01:20.578Z,68.87
2023-06-18T10:03:47.879Z,69.48
2023-06-18T10:06:22.516Z,68.17
2023-06-18T10:08:53.855Z,68.80
2023-06-18T10:11:22.092Z,68.97
2023-06-18T10:13:51.692Z,69.91
2023-06-18T10:16:20.011Z,70.57
2023-06-18T10:19:08.074Z,68.47
2023-06-18T10:21:38.244Z,67.23
2023-06-18T10:24:13.569Z,68.90
2023-06-18T10:26:42.067Z,69.67
2023-06-18T10:29:11.399Z,67.65
2023-06-18T10:31:38.852Z,68.99
2023-06-18T10:34:06.613Z,68.38
2023-06-18T10:36:34.143Z,67.33
2023-06-18T10:39:02.268Z,67.48
2023-06-18T10:41:28.958Z,65.78
2023-06-18T10:43:56.386Z,66.68
2023-06-18T10:46:23.957Z,64.51
2023-06-18T10:49:16.463Z,65.79
2023-06-18T10:51:52.750Z,64.74
2023-06-18T10:54:21.213Z,64.11
2023-06-18T10:56:54.987Z,63.19
2023-06-18T10:59:44.344Z,64.25
2023-06-18T11:02:12.572Z,63.72
2023-06-18T11:04:40.095Z,65.41
2023-06-18T11:07:20.967Z,66.92
2023-06-18T11:09:52.276Z,66.45
2023-06-18T11:12:20.703Z,66.30
2023-06-18T11:15:14.353Z,65.43
2023-06-18T11:17:43.806Z,64.97
2023-06-18T11:20:13.608Z,64.80
2023-06-18T11:22:42.041Z,65.08
2023-06-18T11:25:10.483Z,66.09
2023-06-18T11:27:40.882Z,64.38
2023-06-18T11:30:12.039Z,63.61
2023-06-18T11:32:40.525Z,64.07
2023-06-18T11:35:08.729Z,64.86
2023-06-18T11:37:36.753Z,64.07
2023-06-18T11:40:07.100Z,64.17
2023-06-18T11:42:35.237Z,64.03
2023-06-18T11:45:04.116Z,65.92
2023-06-18T11:47:32.724Z,63.25
2023-06-18T11:49:59.822Z,64.77
2023-06-18T11:52:28.515Z,64.23
2023-06-18T11:54:56.391Z,63.58
2023-06-18T11:57:33.821Z,64.12
2023-06-18T12:00:01.070Z,64.02
2023-06-18T12:02:31.222Z,63.92
2023-06-18T12:05:03.996Z,62.67
2023-06-18T12:07:31.884Z,64.00
2023-06-18T12:10:04.732Z,65.09
2023-06-18T12:12:36.179Z,63.85
2023-06-18T12:15:24.597Z,61.34
2023-06-18T12:17:51.376Z,60.05
2023-06-18T12:20:32.127Z,62.67
2023-06-18T12:23:00.951Z,58.23
2023-06-18T12:25:29.913Z,57.30
2023-06-18T12:27:58.128Z,60.08
2023-06-18T12:30:32.792Z,61.22
2023-06-18T12:33:05.052Z,59.30
2023-06-18T12:35:33.227Z,58.62
2023-06-18T12:38:05.602Z,57.36
2023-06-18T12:40:33.577Z,59.06
2023-06-18T12:43:02.435Z,58.26
2023-06-18T12:45:35.357Z,58.46
2023-06-18T12:48:25.039Z,56.84
2023-06-18T12:50:53.538Z,61.96
2023-06-18T12:53:22.370Z,62.91
2023-06-18T12:55:52.318Z,63.00
2023-06-18T12:58:30.278Z,63.96
2023-06-18T13:01:00.317Z,62.98
2023-06-18T13:03:28.644Z,64.19
2023-06-18T13:05:57.938Z,63.96
2023-06-18T13:08:24.620Z,62.20
2023-06-18T13:10:53.044Z,61.50
2023-06-18T13:13:25.582Z,62.87
2023-06-18T13:15:58.922Z,62.30
2023-06-18T13:18:26.130Z,62.35
2023-06-18T13:20:53.622Z,63.02
2023-06-18T13:23:20.686Z,63.50
2023-06-18T13:25:47.410Z,62.48
2023-06-18T13:28:14.200Z,62.80
2023-06-18T13:30:41.645Z,61.83
2023-06-18T13:33:09.084Z,62.07
2023-06-18T13:35:35.716Z,61.79
2023-06-18T13:38:02.378Z,61.61
2023-06-18T13:40:29.264Z,60.15
2023-06-18T13:42:56.253Z,60.83
2023-06-18T13:45:24.392Z,61.92
2023-06-18T13:47:51.308Z,61.80
2023-06-18T13:50:18.184Z,60.51
2023-06-18T13:52:44.840Z,60.58
2023-06-18T13:55:14.145Z,62.04
2023-06-18T13:57:44.161Z,59.30
2023-06-18T14:00:11.452Z,59.97
2023-06-18T14:02:38.485Z,57.79
2023-06-18T14:05:07.716Z,58.87
2023-06-18T14:07:34.802Z,58.13
2023-06-18T14:10:01.745Z,56.52
2023-06-18T14:12:28.474Z,57.32
2023-06-18T14:14:57.160Z,57.39
2023-06-18T14:17:27.162Z,58.75
2023-06-18T14:19:55.192Z,57.05
2023-06-18T14:22:22.014Z,58.64
2023-06-18T14:24:48.878Z,57.52
2023-06-18T14:27:15.633Z,58.42
2023-06-18T14:29:42.219Z,57.38
2023-06-18T14:32:09.238Z,57.96
2023-06-18T14:34:36.005Z,58.18
2023-06-18T14:37:02.698Z,58.14
2023-06-18T14:39:29.430Z,57.52
2023-06-18T14:41:56.089Z,57.30
2023-06-18T14:44:24.920Z,54.65
2023-06-18T14:46:51.641Z,57.78
2023-06-18T14:49:19.368Z,55.75
2023-06-18T14:51:46.029Z,57.11
2023-06-18T14:54:13.674Z,56.26
2023-06-18T14:56:44.087Z,57.03
2023-06-18T14:59:11.339Z,56.58
2023-06-18T15:01:38.684Z,58.56
2023-06-18T15:04:07.951Z,57.50
2023-06-18T15:06:37.163Z,56.99
2023-06-18T15:09:06.210Z,57.51
2023-06-18T15:11:33.639Z,59.09
2023-06-18T15:14:00.642Z,58.68
2023-06-18T15:16:27.740Z,57.97
2023-06-18T15:18:54.518Z,58.35
2023-06-18T15:21:23.958Z,58.39
2023-06-18T15:23:50.772Z,59.77
2023-06-18T15:26:21.235Z,60.04
2023-06-18T15:28:48.579Z,58.33
2023-06-18T15:31:15.575Z,60.86
2023-06-18T15:33:42.937Z,61.68
2023-06-18T15:36:09.956Z,61.10
2023-06-18T15:38:36.696Z,60.00
2023-06-18T15:41:04.008Z,60.98
2023-06-18T15:43:31.000Z,62.97
2023-06-18T15:45:57.782Z,62.30
2023-06-18T15:48:24.570Z,61.85
2023-06-18T15:50:51.882Z,61.21
2023-06-18T15:53:23.456Z,61.16
2023-06-18T15:55:50.761Z,60.04
2023-06-18T15:58:19.830Z,60.69
2023-06-18T16:00:46.898Z,59.78
2023-06-18T16:03:13.753Z,59.75
2023-06-18T16:05:41.022Z,59.43
2023-06-18T16:08:07.862Z,59.83
2023-06-18T16:10:38.164Z,61.52
2023-06-18T16:13:05.865Z,61.08
2023-06-18T16:15:34.598Z,59.60
2023-06-18T16:18:08.613Z,60.38
2023-06-18T16:20:35.464Z,59.37
2023-06-18T16:23:05.502Z,60.43
2023-06-18T16:25:32.338Z,60.27
2023-06-18T16:28:00.290Z,60.25
2023-06-18T16:30:27.900Z,60.37
2023-06-18T16:32:55.918Z,59.99
2023-06-18T16:35:23.260Z,59.94
2023-06-18T16:37:50.236Z,60.40
2023-06-18T16:40:16.954Z,60.21
2023-06-18T16:42:43.644Z,61.46
2023-06-18T16:45:10.988Z,61.93
2023-06-18T16:47:37.809Z,60.74
2023-06-18T16:50:04.973Z,61.81
2023-06-18T16:52:32.015Z,62.01
2023-06-18T16:55:00.391Z,62.30
2023-06-18T16:57:27.053Z,62.64
2023-06-18T16:59:54.988Z,61.79
2023-06-18T17:02:21.966Z,62.93
2023-06-18T17:04:48.776Z,63.40
2023-06-18T17:07:16.411Z,61.57
2023-06-18T17:09:43.064Z,61.25
2023-06-18T17:12:09.813Z,61.85
2023-06-18T17:14:39.238Z,61.08
2023-06-18T17:17:05.970Z,60.13
2023-06-18T17:19:32.675Z,59.39
2023-06-18T17:22:00.092Z,62.18
2023-06-18T17:24:26.937Z,60.86
2023-06-18T17:26:53.627Z,59.56
2023-06-18T17:29:20.326Z,58.99
2023-06-18T17:31:46.974Z,59.83
2023-06-18T17:34:15.676Z,59.78
2023-06-18T17:36:42.404Z,60.49
2023-06-18T17:39:09.043Z,60.27
2023-06-18T17:41:36.490Z,59.89
2023-06-18T17:44:03.172Z,59.12
2023-06-18T17:46:29.889Z,59.77
2023-06-18T17:48:56.590Z,60.99
2023-06-18T17:51:23.546Z,61.66
2023-06-18T17:53:50.190Z,61.98
2023-06-18T17:56:16.964Z,62.07
2023-06-18T17:58:43.731Z,64.01
2023-06-18T18:01:10.543Z,63.39
2023-06-18T18:03:37.516Z,65.15
2023-06-18T18:06:05.117Z,64.86
2023-06-18T18:08:31.971Z,63.06
2023-06-18T18:10:58.800Z,62.30
2023-06-18T18:13:27.933Z,64.17
2023-06-18T18:16:01.200Z,62.98
2023-06-18T18:18:28.397Z,61.89
2023-06-18T18:20:55.235Z,62.71
2023-06-18T18:23:21.967Z,62.19
2023-06-18T18:25:48.677Z,61.18
2023-06-18T18:28:15.925Z,60.82
2023-06-18T18:30:43.359Z,60.57
2023-06-18T18:33:10.787Z,59.94
2023-06-18T18:35:38.063Z,61.22
2023-06-18T18:38:04.709Z,61.27
2023-06-18T18:40:31.917Z,60.21
2023-06-18T18:42:58.758Z,60.50
2023-06-18T18:45:25.396Z,60.21
2023-06-18T18:47:52.682Z,60.22
2023-06-18T18:50:21.715Z,60.27
2023-06-18T18:52:48.852Z,61.24
2023-06-18T18:55:16.339Z,60.92
2023-06-18T18:57:43.165Z,59.72
2023-06-18T19:00:10.335Z,61.40
2023-06-18T19:02:37.068Z,61.18
2023-06-18T19:05:04.582Z,60.54
2023-06-18T19:07:31.397Z,60.08
2023-06-18T19:09:59.371Z,60.24
2023-06-18T19:12:26.215Z,60.89
2023-06-18T19:14:52.884Z,61.29
2023-06-18T19:17:19.907Z,61.35
2023-06-18T19:19:46.674Z,61.11
2023-06-18T19:22:13.575Z,61.29
2023-06-18T19:24:40.233Z,60.00
2023-06-18T19:27:07.292Z,60.58
2023-06-18T19:29:33.991Z,60.17
2023-06-18T19:32:00.738Z,60.66
2023-06-18T19:34:27.663Z,61.68
2023-06-18T19:36:54.364Z,61.40
2023-06-18T19:39:21.230Z,60.49
2023-06-18T19:41:47.982Z,60.95
2023-06-18T19:44:15.297Z,63.11
2023-06-18T19:46:46.562Z,62.28
2023-06-18T19:49:13.468Z,61.11
2023-06-18T19:51:40.164Z,61.48
2023-06-18T19:54:07.261Z,59.49
2023-06-18T19:56:34.370Z,59.26
2023-06-18T19:59:01.281Z,59.29
2023-06-18T20:01:28.075Z,58.75
2023-06-18T20:03:55.093Z,60.00
2023-06-18T20:06:21.857Z,60.72
2023-06-18T20:08:48.647Z,60.12
2023-06-18T20:11:15.441Z,59.78
2023-06-18T20:13:42.688Z,59.92
2023-06-18T20:16:09.451Z,60.06
2023-06-18T20:18:36.138Z,59.74
2023-06-18T20:21:03.159Z,60.79
2023-06-18T20:23:31.435Z,61.03
2023-06-18T20:25:58.565Z,60.66
2023-06-18T20:28:25.330Z,59.93
2023-06-18T20:30:52.091Z,59.91
2023-06-18T20:33:18.825Z,59.23
2023-06-18T20:35:45.625Z,59.64
2023-06-18T20:38:12.405Z,59.34
2023-06-18T20:40:39.164Z,60.08
2023-06-18T20:43:05.925Z,59.61
2023-06-18T20:45:32.590Z,59.07
2023-06-18T20:48:00.984Z,59.76
2023-06-18T20:50:27.998Z,59.37
2023-06-18T20:52:54.765Z,59.90
2023-06-18T20:55:21.433Z,59.49
2023-06-18T20:57:48.879Z,59.62
2023-06-18T21:00:15.991Z,58.42
2023-06-18T21:02:42.894Z,59.73
2023-06-18T21:05:10.874Z,59.19
2023-06-18T21:07:38.844Z,58.70
2023-06-18T21:10:06.546Z,58.84
2023-06-18T21:12:33.216Z,59.31
2023-06-18T21:15:00.082Z,58.31
2023-06-18T21:17:26.967Z,58.68
2023-06-18T21:19:53.735Z,58.13
2023-06-18T21:22:20.477Z,59.64
2023-06-18T21:24:47.157Z,58.15
2023-06-18T21:27:14.100Z,58.37
2023-06-18T21:29:40.845Z,58.88
2023-06-18T21:32:07.999Z,60.11
2023-06-18T21:34:34.724Z,59.61
2023-06-18T21:37:03.337Z,57.81
2023-06-18T21:39:30.101Z,57.43
2023-06-18T21:41:58.621Z,57.31
2023-06-18T21:44:25.508Z,57.93
2023-06-18T21:46:52.176Z,58.48
2023-06-18T21:49:18.884Z,57.91
2023-06-18T21:51:45.591Z,56.90
2023-06-18T21:54:12.231Z,57.24
2023-06-18T21:56:38.891Z,55.91
2023-06-18T21:59:05.577Z,55.89
2023-06-18T22:01:32.259Z,56.43
2023-06-18T22:03:59.018Z,56.13
2023-06-18T22:06:25.832Z,56.96
2023-06-18T22:08:53.371Z,56.02
2023-06-18T22:11:23.131Z,56.20
2023-06-18T22:13:49.983Z,56.56
2023-06-18T22:16:17.598Z,56.13
2023-06-18T22:18:44.481Z,55.69
2023-06-18T22:21:11.537Z,55.80
2023-06-18T22:23:38.616Z,56.74
2023-06-18T22:26:06.515Z,56.48
2023-06-18T22:28:33.353Z,56.39
2023-06-18T22:31:00.036Z,56.29
2023-06-18T22:33:29.960Z,55.83
2023-06-18T22:35:57.037Z,55.43
2023-06-18T22:38:23.804Z,54.96
2023-06-18T22:40:50.767Z,54.42
2023-06-18T22:43:17.442Z,55.58
2023-06-18T22:45:44.198Z,55.19
2023-06-18T22:48:10.939Z,55.08
2023-06-18T22:50:38.659Z,54.48
2023-06-18T22:53:05.741Z,54.08
2023-06-18T22:55:34.816Z,54.20
2023-06-18T22:58:01.819Z,54.21
2023-06-18T23:00:28.835Z,53.85
2023-06-18T23:02:55.696Z,54.49
2023-06-18T23:05:22.533Z,54.33
2023-06-18T23:07:49.308Z,53.85
2023-06-18T23:10:16.046Z,53.88
2023-06-18T23:12:42.770Z,53.58
2023-06-18T23:15:09.983Z,53.36
2023-06-18T23:17:42.748Z,52.81
2023-06-18T23:20:14.064Z,53.72
2023-06-18T23:22:43.266Z,53.49
2023-06-18T23:25:10.264Z,52.47
2023-06-18T23:27:37.724Z,52.15
2023-06-18T23:30:05.928Z,52.64
2023-06-18T23:32:33.177Z,52.91
2023-06-18T23:35:02.944Z,53.22
2023-06-18T23:37:29.727Z,54.22
2023-06-18T23:39:56.455Z,54.12
2023-06-18T23:42:23.129Z,54.71
2023-06-18T23:44:49.819Z,54.02
2023-06-18T23:47:16.442Z,54.49
2023-06-18T23:49:43.146Z,54.21
2023-06-18T23:52:10.515Z,53.44
2023-06-18T23:54:37.689Z,54.99
2023-06-18T23:57:04.841Z,54.75
2023-06-18T23:59:32.131Z,54.72
